East Springfield, New York
Current Conditions -  °F | °C
As of 5:35 AM on Friday 24 Oct 2014 (Local Time) from KNY0 Reporting Station
Overcast Overcast  
Wind Chill: 38°   Ceiling: 4300
Heat Index: 42°   Visibility: 10mi
Dew Point: 40°   Wind: 7mph
Humidity: 93%   Direction: 280°W
Pressure: 29.83"   Gusts: NA
Location:  42.83°N, 74.82°W
Report Text: KNY0 240935Z AUTO 28006KT 10SM SCT023 SCT035 OVC043 06/05 A2983 RMK AO2 T00580047
Loading
Personal Weather Stations






























Interactive Weather Map
Tropical Storm Tracking
New forecast layout! Learn more

10-Day Weather Forecast

Advertisements
Track Severe Weather on mobile